White Hall, Maryland
Current Conditions -  °F | °C
As of 3:50 AM on Thursday 23 Oct 2014 (Local Time) from KDMW Reporting Station
Overcast Overcast  
Wind Chill: 52°   Ceiling: 2700
Heat Index: 52°   Visibility: 10mi
Dew Point: 45°   Wind: 9mph
Humidity: 76%   Direction: 330°NNW
Pressure: 29.86"   Gusts: 21mph
Location:  39.62°N, 76.63°W
Report Text: KDMW 230750Z AUTO 33008G18KT 10SM OVC027 11/07 A2986 RMK AO2
Loading
Personal Weather Stations






























Interactive Weather Map
Tropical Storm Tracking
New forecast layout! Learn more

10-Day Weather Forecast

Advertisements
Track Severe Weather on mobile